createdAt,value
2019-03-27T00:01:26.210Z,18.93
2019-03-27T00:04:15.103Z,21.73
2019-03-27T00:07:03.218Z,30.43
2019-03-27T00:09:52.344Z,23.67
2019-03-27T00:12:41.322Z,20.53
2019-03-27T00:15:30.015Z,19.07
2019-03-27T00:18:10.880Z,18.40
2019-03-27T00:20:52.187Z,16.17
2019-03-27T00:23:33.350Z,17.90
2019-03-27T00:26:14.749Z,19.10
2019-03-27T00:28:55.931Z,14.50
2019-03-27T00:31:37.375Z,20.30
2019-03-27T00:34:18.460Z,24.40
2019-03-27T00:36:59.504Z,16.50
2019-03-27T00:39:40.871Z,18.80
2019-03-27T00:42:22.351Z,17.37
2019-03-27T00:45:03.694Z,20.30
2019-03-27T00:47:44.753Z,14.57
2019-03-27T00:50:14.859Z,19.10
2019-03-27T00:53:03.531Z,15.57
2019-03-27T00:55:52.457Z,16.90
2019-03-27T00:58:22.406Z,16.33
2019-03-27T01:04:26.615Z,18.67
2019-03-27T01:07:15.442Z,23.00
2019-03-27T01:10:04.412Z,21.27
2019-03-27T01:12:53.114Z,23.90
2019-03-27T01:15:41.797Z,22.63
2019-03-27T01:18:23.051Z,14.17
2019-03-27T01:21:03.694Z,16.70
2019-03-27T01:23:45.113Z,16.73
2019-03-27T01:26:25.744Z,16.37
2019-03-27T01:29:06.423Z,15.83
2019-03-27T01:31:47.005Z,15.23
2019-03-27T01:34:28.405Z,19.10
2019-03-27T01:37:09.575Z,15.83
2019-03-27T01:39:50.657Z,23.33
2019-03-27T01:45:23.936Z,20.17
2019-03-27T01:48:04.986Z,18.27
2019-03-27T01:50:46.230Z,18.47
2019-03-27T01:53:27.131Z,16.10
2019-03-27T01:56:08.219Z,23.30
2019-03-27T01:58:49.577Z,24.33
2019-03-27T02:01:31.099Z,22.10
2019-03-27T02:04:12.327Z,21.97
2019-03-27T02:06:53.484Z,25.80
2019-03-27T02:09:34.476Z,17.27
2019-03-27T02:12:15.718Z,20.90
2019-03-27T02:14:56.719Z,22.10
2019-03-27T02:17:37.970Z,22.47
2019-03-27T02:20:19.144Z,37.03
2019-03-27T02:22:59.698Z,20.00
2019-03-27T02:25:40.864Z,19.73
2019-03-27T02:28:22.379Z,24.20
2019-03-27T02:31:03.603Z,20.53
2019-03-27T02:33:44.834Z,19.27
2019-03-27T02:36:26.141Z,20.80
2019-03-27T02:39:07.364Z,19.33
2019-03-27T02:41:48.440Z,21.03
2019-03-27T02:44:29.664Z,16.30
2019-03-27T02:47:10.901Z,24.30
2019-03-27T02:49:51.835Z,23.73
2019-03-27T02:52:32.873Z,24.13
2019-03-27T02:55:13.866Z,18.90
2019-03-27T02:57:55.288Z,14.30
2019-03-27T03:00:36.276Z,22.30
2019-03-27T03:06:18.395Z,24.27
2019-03-27T03:08:59.774Z,23.43
2019-03-27T03:11:40.912Z,19.70
2019-03-27T03:14:22.230Z,41.87
2019-03-27T03:17:03.624Z,21.03
2019-03-27T03:19:44.822Z,19.57
2019-03-27T03:22:25.949Z,19.90
2019-03-27T03:25:06.661Z,19.70
2019-03-27T03:27:47.768Z,21.33
2019-03-27T03:30:28.340Z,18.57
2019-03-27T03:33:08.986Z,17.23
2019-03-27T03:35:50.235Z,19.60
2019-03-27T03:38:31.281Z,23.60
2019-03-27T03:41:12.413Z,21.10
2019-03-27T03:43:53.315Z,21.70
2019-03-27T03:46:34.574Z,24.77
2019-03-27T03:49:15.880Z,24.67
2019-03-27T03:51:57.172Z,21.20
2019-03-27T03:54:38.425Z,21.07
2019-03-27T03:57:19.885Z,18.20
2019-03-27T04:00:01.184Z,24.50
2019-03-27T04:02:42.131Z,20.53
2019-03-27T04:05:22.873Z,31.17
2019-03-27T04:08:04.432Z,20.00
2019-03-27T04:10:45.602Z,26.20
2019-03-27T04:13:26.845Z,22.13
2019-03-27T04:16:07.954Z,20.27
2019-03-27T04:18:49.340Z,20.50
2019-03-27T04:21:30.895Z,23.87
2019-03-27T04:24:12.031Z,30.53
2019-03-27T04:26:53.017Z,21.90
2019-03-27T04:29:33.815Z,19.40
2019-03-27T04:32:14.865Z,20.67
2019-03-27T04:34:56.131Z,25.03
2019-03-27T04:37:37.384Z,21.40
2019-03-27T04:40:19.311Z,26.93
2019-03-27T04:43:00.492Z,30.80
2019-03-27T04:45:41.812Z,17.27
2019-03-27T04:51:05.741Z,22.33
2019-03-27T04:53:47.153Z,25.60
2019-03-27T04:56:28.975Z,28.97
2019-03-27T04:59:10.275Z,26.20
2019-03-27T05:01:51.711Z,24.00
2019-03-27T05:04:33.231Z,28.70
2019-03-27T05:07:14.851Z,26.10
2019-03-27T05:09:56.026Z,30.40
2019-03-27T05:12:38.822Z,24.53
2019-03-27T05:15:19.704Z,26.10
2019-03-27T05:18:01.281Z,22.97
2019-03-27T05:20:42.049Z,25.23
2019-03-27T05:23:23.158Z,29.93
2019-03-27T05:26:03.905Z,23.17
2019-03-27T05:28:45.341Z,22.90
2019-03-27T05:31:26.564Z,23.00
2019-03-27T05:34:07.772Z,24.13
2019-03-27T05:36:49.214Z,27.17
2019-03-27T05:39:30.755Z,23.20
2019-03-27T05:42:12.183Z,33.07
2019-03-27T05:44:53.592Z,23.47
2019-03-27T05:47:34.337Z,32.50
2019-03-27T05:50:14.990Z,23.27
2019-03-27T05:52:56.375Z,26.33
2019-03-27T05:55:37.287Z,25.60
2019-03-27T05:58:18.598Z,23.70
2019-03-27T06:00:59.334Z,28.37
2019-03-27T06:03:40.760Z,26.00
2019-03-27T06:06:21.306Z,21.63
2019-03-27T06:09:01.934Z,26.57
2019-03-27T06:11:43.434Z,30.30
2019-03-27T06:14:24.337Z,38.40
2019-03-27T06:17:05.053Z,26.40
2019-03-27T06:19:46.152Z,29.90
2019-03-27T06:22:16.117Z,29.20
2019-03-27T06:25:04.851Z,39.03
2019-03-27T06:27:53.524Z,26.13
2019-03-27T06:30:42.222Z,27.50
2019-03-27T06:33:31.244Z,33.00
2019-03-27T06:36:19.887Z,25.27
2019-03-27T06:39:08.562Z,29.93
2019-03-27T06:41:57.275Z,35.20
2019-03-27T06:44:46.129Z,41.83
2019-03-27T06:47:34.892Z,29.83
2019-03-27T06:50:23.855Z,33.70
2019-03-27T06:53:12.941Z,35.77
2019-03-27T06:56:02.004Z,39.10
2019-03-27T06:58:54.932Z,33.27
2019-03-27T07:01:41.198Z,26.50
2019-03-27T07:04:29.928Z,41.13
2019-03-27T07:07:18.670Z,36.17
2019-03-27T07:10:07.716Z,42.07
2019-03-27T07:12:56.441Z,30.30
2019-03-27T07:15:45.351Z,32.70
2019-03-27T07:18:43.402Z,44.27
2019-03-27T07:21:37.421Z,40.97
2019-03-27T07:24:18.754Z,29.17
2019-03-27T07:27:00.306Z,33.30
2019-03-27T07:29:41.313Z,34.30
2019-03-27T07:32:22.490Z,38.73
2019-03-27T07:35:03.370Z,38.37
2019-03-27T07:37:44.773Z,30.73
2019-03-27T07:40:25.618Z,36.40
2019-03-27T07:43:07.034Z,51.70
2019-03-27T07:46:04.381Z,34.33
2019-03-27T07:48:31.500Z,50.77
2019-03-27T07:51:12.671Z,33.33
2019-03-27T07:53:53.215Z,42.90
2019-03-27T07:56:34.224Z,46.40
2019-03-27T07:59:18.033Z,40.73
2019-03-27T08:08:08.610Z,42.27
2019-03-27T08:10:50.058Z,32.53
2019-03-27T08:13:31.091Z,29.67
2019-03-27T08:16:12.159Z,37.20
2019-03-27T08:18:52.799Z,47.13
2019-03-27T08:21:33.947Z,36.90
2019-03-27T08:24:15.371Z,29.50
2019-03-27T08:26:56.364Z,42.20
2019-03-27T08:29:37.656Z,36.20
2019-03-27T08:32:18.617Z,27.80
2019-03-27T08:35:00.242Z,29.23
2019-03-27T08:37:41.417Z,35.60
2019-03-27T08:40:22.764Z,29.50
2019-03-27T08:42:52.700Z,29.40
2019-03-27T08:45:41.397Z,28.10
2019-03-27T08:48:30.148Z,21.50
2019-03-27T08:51:18.865Z,19.13
2019-03-27T08:54:07.765Z,18.53
2019-03-27T08:56:56.573Z,32.03
2019-03-27T08:59:45.325Z,24.17
2019-03-27T09:02:34.016Z,28.60
2019-03-27T09:05:22.742Z,28.57
2019-03-27T09:08:11.415Z,29.00
2019-03-27T09:11:00.117Z,27.97
2019-03-27T09:13:48.851Z,25.30
2019-03-27T09:16:30.037Z,30.30
2019-03-27T09:19:11.580Z,45.83
2019-03-27T09:21:52.325Z,33.63
2019-03-27T09:24:33.513Z,25.30
2019-03-27T09:27:14.804Z,34.07
2019-03-27T09:29:56.119Z,31.90
2019-03-27T09:32:37.474Z,22.40
2019-03-27T09:38:27.181Z,23.17
2019-03-27T09:41:07.981Z,18.37
2019-03-27T09:43:48.994Z,17.93
2019-03-27T09:46:18.856Z,16.87
2019-03-27T09:49:07.546Z,15.93
2019-03-27T09:51:56.229Z,18.23
2019-03-27T09:54:44.940Z,20.10
2019-03-27T09:57:33.950Z,26.37
2019-03-27T10:00:41.586Z,15.77
2019-03-27T10:03:30.272Z,15.00
2019-03-27T10:06:19.004Z,14.47
2019-03-27T10:09:08.060Z,9.63
2019-03-27T10:11:56.725Z,13.00
2019-03-27T10:14:47.489Z,13.07
2019-03-27T10:17:28.337Z,14.53
2019-03-27T10:20:09.593Z,8.53
2019-03-27T10:22:50.179Z,9.37
2019-03-27T10:25:31.484Z,8.53
2019-03-27T10:28:12.270Z,9.50
2019-03-27T10:30:53.644Z,8.70
2019-03-27T10:33:35.022Z,6.30
2019-03-27T10:36:16.537Z,9.40
2019-03-27T10:38:57.760Z,10.80
2019-03-27T10:41:38.867Z,15.07
2019-03-27T10:44:19.420Z,10.27
2019-03-27T10:47:00.706Z,9.40
2019-03-27T10:49:41.343Z,14.17
2019-03-27T10:52:22.583Z,9.70
2019-03-27T10:55:03.906Z,12.30
2019-03-27T10:57:44.537Z,15.20
2019-03-27T11:00:24.260Z,13.97
2019-03-27T11:03:12.939Z,14.17
2019-03-27T11:06:01.611Z,13.93
2019-03-27T11:08:50.267Z,15.20
2019-03-27T11:11:38.935Z,17.17
2019-03-27T11:14:37.857Z,17.70
2019-03-27T11:17:10.190Z,18.37
2019-03-27T11:19:51.424Z,19.23
2019-03-27T11:22:32.594Z,21.33
2019-03-27T11:25:13.827Z,18.73
2019-03-27T11:27:55.439Z,16.53
2019-03-27T11:30:36.932Z,29.40
2019-03-27T11:33:18.258Z,22.83
2019-03-27T11:35:59.160Z,17.53
2019-03-27T11:38:39.721Z,19.00
2019-03-27T11:41:20.972Z,22.20
2019-03-27T11:44:01.672Z,20.43
2019-03-27T11:46:43.032Z,17.13
2019-03-27T11:49:23.981Z,19.87
2019-03-27T11:52:05.389Z,17.73
2019-03-27T11:54:46.424Z,22.07
2019-03-27T11:57:26.998Z,30.03
2019-03-27T12:00:08.210Z,18.27
2019-03-27T12:02:49.365Z,20.37
2019-03-27T12:05:30.422Z,22.17
2019-03-27T12:08:11.068Z,23.27
2019-03-27T12:10:51.716Z,19.37
2019-03-27T12:13:32.929Z,20.17
2019-03-27T12:16:14.166Z,15.27
2019-03-27T12:18:55.050Z,18.10
2019-03-27T12:21:36.222Z,20.70
2019-03-27T12:24:17.661Z,30.60
2019-03-27T12:26:59.002Z,16.47
2019-03-27T12:29:40.255Z,23.70
2019-03-27T12:32:24.877Z,23.17
2019-03-27T12:35:04.565Z,18.30
2019-03-27T12:37:45.706Z,21.53
2019-03-27T12:40:27.133Z,22.93
2019-03-27T12:43:07.885Z,23.77
2019-03-27T12:45:49.262Z,21.67
2019-03-27T12:48:30.976Z,22.90
2019-03-27T12:51:13.413Z,21.03
2019-03-27T12:53:54.990Z,21.83
2019-03-27T12:56:36.097Z,18.80
2019-03-27T12:59:17.298Z,17.60
2019-03-27T13:01:58.479Z,20.20
2019-03-27T13:04:39.283Z,23.50
2019-03-27T13:07:20.194Z,19.10
2019-03-27T13:10:01.239Z,16.50
2019-03-27T13:12:42.587Z,18.20
2019-03-27T13:15:23.550Z,14.67
2019-03-27T13:18:04.890Z,14.30
2019-03-27T13:20:46.255Z,17.03
2019-03-27T13:23:27.313Z,25.53
2019-03-27T13:26:08.269Z,16.77
2019-03-27T13:28:49.502Z,17.30
2019-03-27T13:31:30.919Z,15.97
2019-03-27T13:34:12.403Z,16.97
2019-03-27T13:36:53.815Z,13.77
2019-03-27T13:39:35.216Z,15.90
2019-03-27T13:42:16.176Z,18.47
2019-03-27T13:44:57.166Z,13.33
2019-03-27T13:47:38.519Z,15.97
2019-03-27T13:50:19.465Z,15.63
2019-03-27T13:53:00.459Z,14.43
2019-03-27T13:55:41.492Z,10.60
2019-03-27T13:58:22.465Z,19.20
2019-03-27T14:01:03.516Z,13.90
2019-03-27T14:03:44.726Z,11.17
2019-03-27T14:06:29.298Z,18.17
2019-03-27T14:12:02.336Z,12.20
2019-03-27T14:14:51.206Z,16.53
2019-03-27T14:17:39.952Z,18.67
2019-03-27T14:20:21.004Z,16.20
2019-03-27T14:23:02.217Z,21.10
2019-03-27T14:25:43.462Z,19.10
2019-03-27T14:28:24.823Z,19.93
2019-03-27T14:31:05.883Z,15.57
2019-03-27T14:33:47.245Z,14.40
2019-03-27T14:36:28.571Z,19.40
2019-03-27T14:39:09.294Z,17.53
2019-03-27T14:41:50.627Z,13.97
2019-03-27T14:44:31.578Z,13.47
2019-03-27T14:47:15.556Z,15.60
2019-03-27T14:49:57.356Z,16.77
2019-03-27T14:52:38.582Z,11.37
2019-03-27T14:55:48.039Z,13.13
2019-03-27T14:58:36.711Z,17.13
2019-03-27T15:01:25.400Z,13.60
2019-03-27T15:04:14.265Z,11.17
2019-03-27T15:07:02.961Z,11.17
2019-03-27T15:09:51.676Z,9.57
2019-03-27T15:15:36.969Z,17.87
2019-03-27T15:18:25.837Z,10.90
2019-03-27T15:21:06.498Z,13.40
2019-03-27T15:23:47.266Z,10.20
2019-03-27T15:26:29.045Z,12.40
2019-03-27T15:29:10.060Z,13.90
2019-03-27T15:31:52.196Z,17.87
2019-03-27T15:34:33.683Z,8.93
2019-03-27T15:37:14.471Z,9.47
2019-03-27T15:39:54.385Z,12.43
2019-03-27T15:42:43.086Z,13.87
2019-03-27T15:45:34.385Z,15.03
2019-03-27T15:48:23.132Z,12.10
2019-03-27T15:51:11.845Z,18.10
2019-03-27T15:54:00.533Z,13.17
2019-03-27T15:56:49.209Z,15.03
2019-03-27T15:59:37.985Z,14.23
2019-03-27T16:02:26.706Z,13.53
2019-03-27T16:05:15.473Z,14.30
2019-03-27T16:08:04.216Z,16.07
2019-03-27T16:10:53.159Z,12.30
2019-03-27T16:13:41.829Z,12.67
2019-03-27T16:19:07.454Z,13.80
2019-03-27T16:21:49.053Z,19.40
2019-03-27T16:24:30.325Z,15.13
2019-03-27T16:27:11.936Z,12.33
2019-03-27T16:29:53.212Z,15.43
2019-03-27T16:32:34.065Z,13.10
2019-03-27T16:35:15.466Z,12.03
2019-03-27T16:37:56.510Z,12.77
2019-03-27T16:40:37.572Z,13.47
2019-03-27T16:43:18.574Z,12.30
2019-03-27T16:45:59.689Z,12.57
2019-03-27T16:48:40.243Z,15.70
2019-03-27T16:51:21.458Z,17.97
2019-03-27T16:54:02.806Z,16.40
2019-03-27T16:56:44.058Z,13.93
2019-03-27T16:59:25.479Z,16.40
2019-03-27T17:02:06.950Z,16.13
2019-03-27T17:04:48.234Z,14.80
2019-03-27T17:07:29.461Z,13.57
2019-03-27T17:10:10.243Z,14.07
2019-03-27T17:12:51.569Z,16.40
2019-03-27T17:15:32.413Z,11.90
2019-03-27T17:18:13.132Z,12.63
2019-03-27T17:20:54.367Z,13.13
2019-03-27T17:23:35.156Z,10.50
2019-03-27T17:26:17.045Z,14.40
2019-03-27T17:28:47.151Z,17.97
2019-03-27T17:31:35.990Z,15.30
2019-03-27T17:44:13.120Z,13.87
2019-03-27T17:47:01.789Z,15.70
2019-03-27T17:49:31.765Z,15.20
2019-03-27T17:52:20.425Z,13.73
2019-03-27T17:55:09.158Z,20.10
2019-03-27T18:04:07.438Z,17.90
2019-03-27T18:06:56.261Z,18.63
2019-03-27T18:09:45.233Z,17.37
2019-03-27T18:12:33.870Z,15.80
2019-03-27T18:15:22.548Z,12.40
2019-03-27T18:18:11.206Z,11.23
2019-03-27T18:20:52.661Z,14.50
2019-03-27T18:23:22.682Z,18.67
2019-03-27T18:26:11.429Z,16.40
2019-03-27T18:29:00.239Z,12.90
2019-03-27T18:31:48.973Z,16.80
2019-03-27T18:34:37.633Z,13.17
2019-03-27T18:37:26.533Z,18.27
2019-03-27T18:40:15.370Z,14.10
2019-03-27T18:43:04.117Z,16.77
2019-03-27T18:45:52.710Z,14.67
2019-03-27T18:48:41.353Z,13.17
2019-03-27T18:51:30.205Z,14.03
2019-03-27T18:54:19.098Z,16.53
2019-03-27T18:57:07.767Z,18.17
2019-03-27T18:59:56.403Z,14.57
2019-03-27T19:03:05.261Z,16.80
2019-03-27T19:05:54.019Z,17.10
2019-03-27T19:08:42.661Z,15.27
2019-03-27T19:17:35.126Z,16.90
2019-03-27T19:20:16.702Z,15.30
2019-03-27T19:22:57.528Z,15.33
2019-03-27T19:25:27.509Z,17.40
2019-03-27T19:28:16.319Z,18.43
2019-03-27T19:31:05.162Z,14.97
2019-03-27T19:33:53.909Z,16.83
2019-03-27T19:36:42.748Z,16.63
2019-03-27T19:39:31.507Z,16.00
2019-03-27T19:42:20.295Z,14.23
2019-03-27T19:45:09.157Z,14.53
2019-03-27T19:47:57.974Z,15.60
2019-03-27T19:50:46.739Z,16.30
2019-03-27T19:57:05.006Z,15.43
2019-03-27T19:59:35.155Z,19.53
2019-03-27T20:02:23.994Z,16.10
2019-03-27T20:05:13.241Z,21.07
2019-03-27T20:08:02.108Z,24.70
2019-03-27T20:10:50.820Z,24.47
2019-03-27T20:13:39.881Z,16.80
2019-03-27T20:16:21.017Z,19.03
2019-03-27T20:19:02.391Z,18.03
2019-03-27T20:21:42.333Z,22.60
2019-03-27T20:24:40.872Z,17.77
2019-03-27T20:27:22.092Z,23.73
2019-03-27T20:30:11.830Z,17.30
2019-03-27T20:33:00.607Z,23.13
2019-03-27T20:35:49.329Z,20.93
2019-03-27T20:41:53.286Z,23.33
2019-03-27T20:44:50.345Z,25.90
2019-03-27T20:47:39.123Z,22.07
2019-03-27T20:50:27.837Z,19.37
2019-03-27T20:53:16.599Z,22.63
2019-03-27T20:56:05.306Z,27.67
2019-03-27T20:58:54.128Z,19.13
2019-03-27T21:01:42.851Z,20.07
2019-03-27T21:04:31.541Z,20.10
2019-03-27T21:07:20.344Z,28.83
2019-03-27T21:10:09.419Z,24.87
2019-03-27T21:12:58.105Z,21.57
2019-03-27T21:15:39.066Z,22.93
2019-03-27T21:18:20.362Z,28.57
2019-03-27T21:21:01.564Z,21.37
2019-03-27T21:23:42.602Z,25.87
2019-03-27T21:26:23.966Z,27.40
2019-03-27T21:29:05.382Z,27.50
2019-03-27T21:31:35.285Z,23.47
2019-03-27T21:34:24.020Z,24.17
2019-03-27T21:37:12.799Z,25.40
2019-03-27T21:40:01.525Z,20.70
2019-03-27T21:42:50.215Z,21.80
2019-03-27T21:45:59.754Z,18.80
2019-03-27T21:49:14.289Z,25.57
2019-03-27T21:52:03.228Z,23.03
2019-03-27T21:54:52.677Z,24.50
2019-03-27T21:57:41.481Z,23.60
2019-03-27T22:00:48.986Z,21.03
2019-03-27T22:03:37.728Z,24.23
2019-03-27T22:06:26.380Z,22.23
2019-03-27T22:09:34.216Z,21.53
2019-03-27T22:12:22.949Z,26.23
2019-03-27T22:15:04.375Z,28.07
2019-03-27T22:17:45.496Z,25.70
2019-03-27T22:20:26.809Z,24.50
2019-03-27T22:23:08.085Z,27.47
2019-03-27T22:25:49.565Z,21.13
2019-03-27T22:28:30.797Z,20.67
2019-03-27T22:31:11.739Z,25.73
2019-03-27T22:33:52.968Z,30.07
2019-03-27T22:36:33.995Z,26.60
2019-03-27T22:39:45.708Z,23.00
2019-03-27T22:42:34.440Z,26.43
2019-03-27T22:45:26.052Z,30.40
2019-03-27T22:48:14.799Z,26.17
2019-03-27T22:51:03.461Z,22.70
2019-03-27T22:53:52.253Z,27.73
2019-03-27T22:56:41.101Z,27.13
2019-03-27T22:59:29.865Z,25.93
2019-03-27T23:02:18.780Z,25.03
2019-03-27T23:05:07.618Z,26.93
2019-03-27T23:07:56.308Z,29.33
2019-03-27T23:10:44.933Z,31.37
2019-03-27T23:13:14.812Z,24.63
2019-03-27T23:15:56.165Z,28.80
2019-03-27T23:18:37.331Z,23.07
2019-03-27T23:21:18.228Z,20.57
2019-03-27T23:23:58.800Z,23.80
2019-03-27T23:26:39.422Z,23.43
2019-03-27T23:29:20.690Z,21.57
2019-03-27T23:32:01.855Z,20.40
2019-03-27T23:34:42.527Z,24.47
2019-03-27T23:37:23.860Z,28.40
2019-03-27T23:40:04.951Z,23.13
2019-03-27T23:42:46.194Z,28.60
2019-03-27T23:45:26.932Z,25.13
2019-03-27T23:48:08.116Z,22.50
2019-03-27T23:50:49.136Z,24.97
2019-03-27T23:53:30.232Z,24.00
2019-03-27T23:56:00.846Z,32.20
2019-03-27T23:58:49.736Z,24.03
